Doty, WA (98539)

4:40 PM PST on February 11, 2016 (GMT -0800)
curtis | | Change Station
CLOSE
Current Station
Personal Weather Station
Location: Washington, WA
Elevation: 312 ft
Nearby Weather Stations

Elev 312 ft 46.56 °N, 123.18 °W | Updated 22 seconds ago

Rain
Rain
54.0 °F
Feels Like 54.0 °F
N
4.9
Wind Variable Wind from ESE
Gusts 8.0 mph

Today
High -- | Low -- °F
--% Chance of Precip.
Yesterday
High -- | Low -- °F
Precip. -- in
Pressure 30.10 in
Visibility 4.0 miles
Clouds Few 3800 ft
Mostly Cloudy 4700 ft
Mostly Cloudy 6000 ft
Dew Point 52 °F
Humidity 92%
Rainfall 0.04 in
Snow Depth Not available.
7:23 AM 5:31 PM
Waxing Crescent, 15% visible
METAR KCLS 120035Z AUTO 18006KT 4SM -RA FEW038 BKN047 BKN060 12/12 A3010 RMK AO2
Pressure 30.10 in
Visibility 4.0 miles
Clouds Few 3800 ft
Mostly Cloudy 4700 ft
Mostly Cloudy 6000 ft
Dew Point 52 °F
Humidity 92%
Rainfall 0.04 in
Snow Depth Not available.
7:23 AM 5:31 PM
Waxing Crescent, 15% visible
METAR KCLS 120035Z AUTO 18006KT 4SM -RA FEW038 BKN047 BKN060 12/12 A3010 RMK AO2

10-Day Weather Forecast

Almanac

Astronomy

Feb. 11, 2016 Rise Set
Actual Time
Civil Twilight
Nautical Twilight
Astronomical Twilight
Moon
Length of Visible Light
Length of Day
Tomorrow will be .
, % of the Moon is Illuminated

Today's Extremes

State Highs State Lows

Community

WunderPhotos

Upload Photos

1,892,194 photos uploaded!

WunderBlog® & News

Nearby

Air Quality

  Air Quality AQ Index Pollutant
Not available.

Snow Depth

Station Depth Elevation

Earthquake Activity

City Distance Mag. Time & Date
Minimum magnitude displayed is 2.5.

Coastal Water Temperatures

Place Temperature

Stations

Nearby Weather Stations

Station Location Temp. Windchill Dew Point Humidity Wind Precip. Elev Updated Type
                   

Watches & Warnings

There are currently no watches in effect.